createdAt,value
2023-05-21T00:02:26.521Z,13.20
2023-05-21T00:04:55.270Z,13.20
2023-05-21T00:07:23.539Z,13.30
2023-05-21T00:09:53.481Z,13.30
2023-05-21T00:12:21.433Z,13.30
2023-05-21T00:14:49.624Z,13.30
2023-05-21T00:17:18.304Z,13.30
2023-05-21T00:19:48.106Z,13.30
2023-05-21T00:22:16.485Z,13.30
2023-05-21T00:24:47.642Z,13.30
2023-05-21T00:27:15.641Z,13.30
2023-05-21T00:29:44.554Z,13.50
2023-05-21T00:32:12.700Z,13.50
2023-05-21T00:34:41.523Z,13.50
2023-05-21T00:37:10.157Z,13.50
2023-05-21T00:39:38.816Z,13.60
2023-05-21T00:42:06.901Z,13.60
2023-05-21T00:44:35.884Z,13.50
2023-05-21T00:47:05.082Z,13.50
2023-05-21T00:49:33.372Z,13.50
2023-05-21T00:52:01.935Z,13.50
2023-05-21T00:54:31.339Z,13.50
2023-05-21T00:57:00.447Z,13.50
2023-05-21T00:59:29.040Z,13.40
2023-05-21T01:01:57.331Z,13.30
2023-05-21T01:04:25.997Z,13.30
2023-05-21T01:06:53.759Z,13.30
2023-05-21T01:09:22.357Z,13.30
2023-05-21T01:11:52.159Z,13.10
2023-05-21T01:14:21.162Z,13.10
2023-05-21T01:16:50.644Z,13.10
2023-05-21T01:19:24.689Z,13.10
2023-05-21T01:21:56.624Z,13.10
2023-05-21T01:24:24.829Z,13.00
2023-05-21T01:26:52.667Z,13.00
2023-05-21T01:29:21.189Z,12.90
2023-05-21T01:32:31.780Z,12.90
2023-05-21T01:35:13.712Z,12.80
2023-05-21T01:37:51.848Z,12.70
2023-05-21T01:40:38.692Z,12.70
2023-05-21T01:43:07.619Z,12.70
2023-05-21T01:45:39.911Z,12.60
2023-05-21T01:48:09.556Z,12.60
2023-05-21T01:50:39.518Z,12.50
2023-05-21T01:53:07.606Z,12.50
2023-05-21T01:55:36.233Z,12.50
2023-05-21T01:58:04.122Z,12.40
2023-05-21T02:00:32.959Z,12.30
2023-05-21T02:03:02.555Z,12.30
2023-05-21T02:05:30.837Z,12.20
2023-05-21T02:08:00.554Z,12.20
2023-05-21T02:10:29.621Z,12.10
2023-05-21T02:12:57.613Z,12.00
2023-05-21T02:15:26.075Z,12.00
2023-05-21T02:17:54.335Z,12.00
2023-05-21T02:20:23.163Z,12.00
2023-05-21T02:22:51.130Z,12.00
2023-05-21T02:25:20.158Z,12.00
2023-05-21T02:27:53.111Z,12.00
2023-05-21T02:30:21.711Z,12.00
2023-05-21T02:32:50.197Z,12.00
2023-05-21T02:35:18.451Z,11.90
2023-05-21T02:37:46.329Z,11.90
2023-05-21T02:40:16.571Z,11.90
2023-05-21T02:42:44.408Z,11.90
2023-05-21T02:45:17.190Z,11.90
2023-05-21T02:47:45.191Z,11.90
2023-05-21T02:50:15.223Z,11.90
2023-05-21T02:52:53.625Z,11.90
2023-05-21T02:55:23.217Z,11.80
2023-05-21T02:57:51.700Z,11.70
2023-05-21T03:00:19.964Z,11.70
2023-05-21T03:02:48.318Z,11.70
2023-05-21T03:05:16.809Z,11.70
2023-05-21T03:07:45.753Z,11.70
2023-05-21T03:10:13.989Z,11.70
2023-05-21T03:12:42.055Z,11.70
2023-05-21T03:15:11.165Z,11.70
2023-05-21T03:17:39.076Z,11.70
2023-05-21T03:20:09.163Z,11.70
2023-05-21T03:22:37.926Z,11.70
2023-05-21T03:25:06.450Z,11.70
2023-05-21T03:27:34.183Z,11.80
2023-05-21T03:30:06.858Z,11.90
2023-05-21T03:32:45.334Z,11.90
2023-05-21T03:35:13.778Z,11.90
2023-05-21T03:37:42.146Z,11.90
2023-05-21T03:40:10.921Z,12.00
2023-05-21T03:42:41.052Z,12.10
2023-05-21T03:45:09.733Z,12.20
2023-05-21T03:47:58.425Z,12.30
2023-05-21T03:50:26.763Z,12.40
2023-05-21T03:52:54.645Z,12.50
2023-05-21T03:55:23.009Z,12.60
2023-05-21T03:57:51.199Z,12.80
2023-05-21T04:00:19.689Z,13.00
2023-05-21T04:02:48.684Z,13.20
2023-05-21T04:05:18.513Z,13.30
2023-05-21T04:07:46.682Z,13.60
2023-05-21T04:10:15.974Z,13.80
2023-05-21T04:12:43.857Z,14.00
2023-05-21T04:15:12.820Z,14.30
2023-05-21T04:17:40.720Z,14.50
2023-05-21T04:20:09.480Z,14.80
2023-05-21T04:22:37.551Z,15.00
2023-05-21T04:25:06.135Z,15.00
2023-05-21T04:27:39.728Z,15.20
2023-05-21T04:30:10.067Z,15.40
2023-05-21T04:32:38.759Z,15.60
2023-05-21T04:35:09.076Z,15.80
2023-05-21T04:37:37.280Z,16.00
2023-05-21T04:40:06.873Z,16.10
2023-05-21T04:42:35.035Z,16.20
2023-05-21T04:45:04.334Z,16.40
2023-05-21T04:47:35.980Z,16.60
2023-05-21T04:50:06.633Z,16.80
2023-05-21T04:52:35.137Z,17.00
2023-05-21T04:55:03.997Z,17.30
2023-05-21T04:57:31.871Z,17.60
2023-05-21T05:00:01.598Z,17.80
2023-05-21T05:02:33.483Z,18.00
2023-05-21T05:05:01.920Z,18.30
2023-05-21T05:07:30.128Z,18.40
2023-05-21T05:09:58.371Z,18.80
2023-05-21T05:12:27.272Z,19.00
2023-05-21T05:14:55.549Z,19.10
2023-05-21T05:17:24.930Z,18.90
2023-05-21T05:19:53.534Z,19.10
2023-05-21T05:22:21.406Z,19.40
2023-05-21T05:24:49.706Z,19.70
2023-05-21T05:27:18.397Z,19.90
2023-05-21T05:29:48.479Z,20.10
2023-05-21T05:32:16.363Z,20.30
2023-05-21T05:34:46.663Z,20.40
2023-05-21T05:37:14.653Z,20.60
2023-05-21T05:39:42.919Z,20.90
2023-05-21T05:42:11.101Z,21.10
2023-05-21T05:44:39.482Z,21.30
2023-05-21T05:47:11.034Z,21.50
2023-05-21T05:49:41.384Z,21.70
2023-05-21T05:52:09.530Z,21.90
2023-05-21T05:54:38.852Z,22.30
2023-05-21T05:57:06.831Z,22.80
2023-05-21T05:59:36.299Z,23.00
2023-05-21T06:02:06.119Z,23.40
2023-05-21T06:04:34.807Z,24.00
2023-05-21T06:07:02.795Z,24.50
2023-05-21T06:09:31.573Z,24.80
2023-05-21T06:11:59.540Z,25.00
2023-05-21T06:14:28.005Z,25.00
2023-05-21T06:16:55.886Z,25.00
2023-05-21T06:19:24.789Z,25.30
2023-05-21T06:21:53.163Z,25.80
2023-05-21T06:24:21.642Z,26.00
2023-05-21T06:26:49.714Z,26.30
2023-05-21T06:29:18.391Z,26.50
2023-05-21T06:31:52.349Z,26.50
2023-05-21T06:34:26.940Z,26.70
2023-05-21T06:37:25.934Z,27.00
2023-05-21T06:39:55.564Z,27.10
2023-05-21T06:42:23.814Z,27.00
2023-05-21T06:45:14.721Z,27.30
2023-05-21T06:47:45.509Z,27.30
2023-05-21T06:50:15.374Z,27.50
2023-05-21T06:52:44.476Z,27.70
2023-05-21T06:55:13.696Z,28.00
2023-05-21T06:58:17.275Z,28.00
2023-05-21T07:00:46.157Z,28.10
2023-05-21T07:03:14.356Z,28.00
2023-05-21T07:05:43.107Z,27.70
2023-05-21T07:08:12.253Z,27.70
2023-05-21T07:10:41.050Z,27.80
2023-05-21T07:13:10.956Z,27.90
2023-05-21T07:15:40.781Z,28.00
2023-05-21T07:18:08.703Z,27.90
2023-05-21T07:20:36.988Z,28.00
2023-05-21T07:23:06.994Z,27.90
2023-05-21T07:25:35.652Z,27.80
2023-05-21T07:28:05.879Z,27.80
2023-05-21T07:30:34.937Z,27.90
2023-05-21T07:33:04.463Z,28.00
2023-05-21T07:35:32.804Z,28.20
2023-05-21T07:38:00.852Z,28.60
2023-05-21T07:40:28.959Z,28.90
2023-05-21T07:42:56.866Z,28.90
2023-05-21T07:45:29.390Z,29.20
2023-05-21T07:47:57.529Z,29.50
2023-05-21T07:50:26.832Z,29.80
2023-05-21T07:52:55.978Z,30.10
2023-05-21T07:55:24.481Z,30.30
2023-05-21T07:57:53.837Z,30.40
2023-05-21T08:00:27.617Z,30.30
2023-05-21T08:02:58.251Z,30.30
2023-05-21T08:05:27.472Z,29.90
2023-05-21T08:07:55.377Z,29.50
2023-05-21T08:10:24.138Z,29.30
2023-05-21T08:12:54.139Z,29.30
2023-05-21T08:15:22.710Z,29.70
2023-05-21T08:17:50.677Z,30.10
2023-05-21T08:20:23.938Z,30.20
2023-05-21T08:22:51.810Z,30.20
2023-05-21T08:25:20.584Z,29.90
2023-05-21T08:27:50.963Z,29.70
2023-05-21T08:30:21.492Z,29.60
2023-05-21T08:32:50.443Z,29.70
2023-05-21T08:35:21.439Z,30.40
2023-05-21T08:38:04.977Z,31.00
2023-05-21T08:40:53.850Z,31.40
2023-05-21T08:43:22.004Z,31.60
2023-05-21T08:45:55.382Z,31.70
2023-05-21T08:48:26.566Z,32.10
2023-05-21T08:50:55.753Z,32.40
2023-05-21T08:53:33.675Z,32.80
2023-05-21T08:56:03.061Z,32.80
2023-05-21T08:58:47.537Z,33.10
2023-05-21T09:01:19.631Z,33.30
2023-05-21T09:03:57.109Z,33.40
2023-05-21T09:06:27.717Z,34.00
2023-05-21T09:09:23.476Z,33.90
2023-05-21T09:11:51.709Z,33.50
2023-05-21T09:14:21.948Z,33.30
2023-05-21T09:17:16.625Z,33.50
2023-05-21T09:20:14.971Z,34.00
2023-05-21T09:22:52.413Z,34.00
2023-05-21T09:25:30.117Z,33.60
2023-05-21T09:28:03.120Z,33.40
2023-05-21T09:30:32.591Z,32.80
2023-05-21T09:33:04.501Z,32.60
2023-05-21T09:35:34.854Z,32.50
2023-05-21T09:38:10.026Z,32.30
2023-05-21T09:40:43.720Z,32.20
2023-05-21T09:43:16.361Z,31.80
2023-05-21T09:45:55.176Z,31.90
2023-05-21T09:48:42.219Z,32.20
2023-05-21T09:51:21.587Z,32.60
2023-05-21T09:53:52.821Z,32.80
2023-05-21T09:56:25.087Z,32.40
2023-05-21T09:58:55.328Z,32.10
2023-05-21T10:01:25.343Z,32.20
2023-05-21T10:03:58.901Z,32.30
2023-05-21T10:06:35.027Z,32.60
2023-05-21T10:09:10.940Z,32.80
2023-05-21T10:11:42.419Z,32.50
2023-05-21T10:14:17.461Z,32.20
2023-05-21T10:16:46.867Z,31.70
2023-05-21T10:19:16.467Z,31.00
2023-05-21T10:21:46.079Z,30.00
2023-05-21T10:24:15.874Z,29.00
2023-05-21T10:26:45.173Z,28.30
2023-05-21T10:29:18.145Z,27.60
2023-05-21T10:31:50.343Z,26.90
2023-05-21T10:34:19.561Z,26.60
2023-05-21T10:36:49.758Z,26.70
2023-05-21T10:39:20.264Z,26.80
2023-05-21T10:42:00.429Z,26.90
2023-05-21T10:44:41.428Z,26.90
2023-05-21T10:47:39.499Z,26.80
2023-05-21T10:50:29.691Z,26.80
2023-05-21T10:53:25.412Z,26.90
2023-05-21T10:56:12.020Z,27.10
2023-05-21T10:59:04.856Z,27.50
2023-05-21T11:01:37.110Z,27.50
2023-05-21T11:04:07.984Z,27.70
2023-05-21T11:06:36.065Z,27.90
2023-05-21T11:09:14.099Z,28.10
2023-05-21T11:11:53.122Z,28.40
2023-05-21T11:14:36.091Z,28.50
2023-05-21T11:17:07.105Z,28.30
2023-05-21T11:19:39.326Z,28.30
2023-05-21T11:22:21.079Z,28.30
2023-05-21T11:24:53.794Z,28.30
2023-05-21T11:27:38.722Z,28.50
2023-05-21T11:30:08.950Z,28.40
2023-05-21T11:33:01.710Z,28.10
2023-05-21T11:35:29.432Z,28.10
2023-05-21T11:37:57.546Z,28.10
2023-05-21T11:40:27.630Z,28.20
2023-05-21T11:42:56.385Z,28.30
2023-05-21T11:45:28.828Z,28.50
2023-05-21T11:47:57.449Z,28.90
2023-05-21T11:50:26.106Z,29.00
2023-05-21T11:52:55.375Z,29.40
2023-05-21T11:55:26.264Z,29.60
2023-05-21T11:57:55.877Z,29.40
2023-05-21T12:00:23.714Z,29.00
2023-05-21T12:02:53.092Z,28.80
2023-05-21T12:05:21.761Z,28.80
2023-05-21T12:07:50.688Z,29.10
2023-05-21T12:10:22.191Z,29.40
2023-05-21T12:12:56.430Z,29.50
2023-05-21T12:15:26.629Z,29.50
2023-05-21T12:17:55.594Z,29.70
2023-05-21T12:20:24.191Z,30.00
2023-05-21T12:22:52.473Z,30.50
2023-05-21T12:25:21.620Z,30.60
2023-05-21T12:27:52.940Z,30.70
2023-05-21T12:30:21.694Z,30.80
2023-05-21T12:32:49.961Z,30.70
2023-05-21T12:35:23.778Z,30.70
2023-05-21T12:37:53.114Z,30.90
2023-05-21T12:40:22.529Z,31.00
2023-05-21T12:42:52.068Z,31.00
2023-05-21T12:45:22.338Z,31.00
2023-05-21T12:47:56.573Z,31.00
2023-05-21T12:50:24.660Z,31.00
2023-05-21T12:52:55.462Z,30.70
2023-05-21T12:55:28.571Z,30.40
2023-05-21T12:58:05.944Z,30.10
2023-05-21T13:00:36.438Z,29.90
2023-05-21T13:03:06.894Z,30.00
2023-05-21T13:05:36.004Z,29.90
2023-05-21T13:08:04.353Z,30.00
2023-05-21T13:10:32.436Z,29.80
2023-05-21T13:13:00.816Z,29.50
2023-05-21T13:15:28.672Z,29.30
2023-05-21T13:17:58.610Z,28.90
2023-05-21T13:20:27.802Z,28.70
2023-05-21T13:22:55.952Z,28.30
2023-05-21T13:25:25.435Z,28.50
2023-05-21T13:27:53.855Z,28.50
2023-05-21T13:30:22.519Z,28.40
2023-05-21T13:32:50.854Z,28.30
2023-05-21T13:35:18.849Z,28.00
2023-05-21T13:37:49.204Z,27.50
2023-05-21T13:40:17.378Z,27.30
2023-05-21T13:42:47.701Z,27.10
2023-05-21T13:45:18.119Z,27.10
2023-05-21T13:47:48.165Z,26.90
2023-05-21T13:50:16.667Z,26.60
2023-05-21T13:52:45.251Z,26.40
2023-05-21T13:55:13.428Z,26.40
2023-05-21T13:57:42.035Z,26.40
2023-05-21T14:00:12.754Z,26.50
2023-05-21T14:02:43.352Z,26.50
2023-05-21T14:05:12.418Z,26.40
2023-05-21T14:07:40.817Z,26.50
2023-05-21T14:10:09.143Z,26.60
2023-05-21T14:12:38.720Z,26.60
2023-05-21T14:15:07.183Z,26.50
2023-05-21T14:17:35.417Z,26.40
2023-05-21T14:20:03.403Z,26.40
2023-05-21T14:22:31.366Z,26.30
2023-05-21T14:24:59.171Z,26.20
2023-05-21T14:27:27.129Z,26.20
2023-05-21T14:29:54.943Z,26.30
2023-05-21T14:32:24.611Z,26.30
2023-05-21T14:34:52.464Z,26.40
2023-05-21T14:37:20.573Z,26.40
2023-05-21T14:39:48.327Z,26.30
2023-05-21T14:42:16.449Z,26.40
2023-05-21T14:44:44.209Z,26.40
2023-05-21T14:47:12.457Z,26.40
2023-05-21T14:49:40.150Z,26.40
2023-05-21T14:52:08.191Z,26.40
2023-05-21T14:54:36.539Z,26.40
2023-05-21T14:57:04.861Z,26.20
2023-05-21T14:59:32.552Z,26.20
2023-05-21T15:02:00.757Z,26.10
2023-05-21T15:04:28.536Z,25.90
2023-05-21T15:06:56.838Z,25.60
2023-05-21T15:09:24.532Z,25.50
2023-05-21T15:11:53.934Z,25.30
2023-05-21T15:14:21.648Z,25.20
2023-05-21T15:16:49.986Z,25.10
2023-05-21T15:19:17.881Z,25.10
2023-05-21T15:21:47.455Z,25.00
2023-05-21T15:24:15.368Z,25.00
2023-05-21T15:26:43.456Z,24.80
2023-05-21T15:29:11.152Z,24.70
2023-05-21T15:31:39.725Z,24.60
2023-05-21T15:34:07.833Z,24.50
2023-05-21T15:36:36.785Z,24.40
2023-05-21T15:39:06.375Z,24.40
2023-05-21T15:41:39.508Z,24.40
2023-05-21T15:44:07.381Z,24.30
2023-05-21T15:46:35.741Z,24.20
2023-05-21T15:49:03.747Z,24.20
2023-05-21T15:51:32.167Z,24.20
2023-05-21T15:54:02.862Z,24.20
2023-05-21T15:56:31.165Z,24.20
2023-05-21T15:59:04.433Z,24.20
2023-05-21T16:01:33.684Z,24.20
2023-05-21T16:04:03.587Z,24.30
2023-05-21T16:06:40.350Z,24.30
2023-05-21T16:09:08.054Z,24.40
2023-05-21T16:11:37.893Z,24.40
2023-05-21T16:14:05.588Z,24.40
2023-05-21T16:16:34.966Z,24.40
2023-05-21T16:19:03.914Z,24.40
2023-05-21T16:21:32.416Z,24.50
2023-05-21T16:24:00.429Z,24.50
2023-05-21T16:26:33.435Z,24.50
2023-05-21T16:29:02.316Z,24.50
2023-05-21T16:31:32.299Z,24.50
2023-05-21T16:34:02.366Z,24.60
2023-05-21T16:36:31.272Z,24.60
2023-05-21T16:39:01.926Z,24.60
2023-05-21T16:41:29.988Z,24.70
2023-05-21T16:44:01.653Z,24.70
2023-05-21T16:46:35.151Z,24.70
2023-05-21T16:49:05.598Z,24.70
2023-05-21T16:51:34.379Z,24.70
2023-05-21T16:54:07.045Z,24.70
2023-05-21T16:56:36.414Z,24.60
2023-05-21T16:59:04.195Z,24.60
2023-05-21T17:01:33.138Z,24.50
2023-05-21T17:04:01.375Z,24.40
2023-05-21T17:06:30.687Z,24.40
2023-05-21T17:09:23.848Z,24.30
2023-05-21T17:11:51.989Z,24.20
2023-05-21T17:14:32.610Z,24.20
2023-05-21T17:17:02.578Z,24.00
2023-05-21T17:19:30.595Z,24.00
2023-05-21T17:21:59.047Z,24.00
2023-05-21T17:24:26.988Z,24.00
2023-05-21T17:26:55.080Z,23.90
2023-05-21T17:29:22.847Z,23.80
2023-05-21T17:31:51.144Z,23.60
2023-05-21T17:34:19.018Z,23.50
2023-05-21T17:36:48.672Z,23.40
2023-05-21T17:39:16.372Z,23.30
2023-05-21T17:41:44.609Z,23.30
2023-05-21T17:44:13.831Z,23.20
2023-05-21T17:46:42.021Z,23.10
2023-05-21T17:49:09.890Z,23.00
2023-05-21T17:51:39.052Z,22.80
2023-05-21T17:54:08.430Z,22.60
2023-05-21T17:56:39.720Z,22.50
2023-05-21T17:59:09.429Z,22.40
2023-05-21T18:01:40.306Z,22.30
2023-05-21T18:04:11.087Z,22.20
2023-05-21T18:06:40.259Z,22.20
2023-05-21T18:09:08.325Z,22.10
2023-05-21T18:11:37.091Z,22.00
2023-05-21T18:14:05.034Z,21.90
2023-05-21T18:16:33.350Z,21.80
2023-05-21T18:19:05.837Z,21.70
2023-05-21T18:21:37.460Z,21.60
2023-05-21T18:24:06.791Z,21.50
2023-05-21T18:26:34.825Z,21.50
2023-05-21T18:29:02.574Z,21.40
2023-05-21T18:31:31.606Z,21.30
2023-05-21T18:33:59.454Z,21.20
2023-05-21T18:36:28.621Z,21.10
2023-05-21T18:38:58.037Z,21.10
2023-05-21T18:41:26.644Z,21.00
2023-05-21T18:43:54.368Z,20.90
2023-05-21T18:46:22.431Z,20.90
2023-05-21T18:48:50.268Z,20.80
2023-05-21T18:51:18.350Z,20.70
2023-05-21T18:53:46.131Z,20.70
2023-05-21T18:56:14.253Z,20.60
2023-05-21T18:58:42.535Z,20.50
2023-05-21T19:01:11.048Z,20.50
2023-05-21T19:03:39.680Z,20.40
2023-05-21T19:06:09.379Z,20.30
2023-05-21T19:08:37.402Z,20.30
2023-05-21T19:11:07.293Z,20.20
2023-05-21T19:13:35.964Z,20.10
2023-05-21T19:16:04.161Z,20.10
2023-05-21T19:18:32.610Z,20.10
2023-05-21T19:21:01.287Z,20.00
2023-05-21T19:23:35.768Z,20.00
2023-05-21T19:26:10.394Z,20.00
2023-05-21T19:28:38.406Z,19.90
2023-05-21T19:31:06.854Z,19.90
2023-05-21T19:33:35.467Z,19.80
2023-05-21T19:36:06.464Z,19.70
2023-05-21T19:38:39.575Z,19.70
2023-05-21T19:41:07.973Z,19.60
2023-05-21T19:43:35.751Z,19.50
2023-05-21T19:46:04.169Z,19.50
2023-05-21T19:48:35.183Z,19.40
2023-05-21T19:51:03.321Z,19.30
2023-05-21T19:53:33.391Z,19.30
2023-05-21T19:56:01.739Z,19.20
2023-05-21T19:58:30.611Z,19.10
2023-05-21T20:01:01.222Z,19.00
2023-05-21T20:03:35.935Z,18.90
2023-05-21T20:06:04.581Z,18.80
2023-05-21T20:08:32.743Z,18.70
2023-05-21T20:11:01.917Z,18.60
2023-05-21T20:13:29.656Z,18.50
2023-05-21T20:15:57.861Z,18.40
2023-05-21T20:18:25.743Z,18.30
2023-05-21T20:20:55.721Z,18.20
2023-05-21T20:23:23.496Z,18.10
2023-05-21T20:25:53.624Z,18.10
2023-05-21T20:28:23.265Z,18.00
2023-05-21T20:30:58.945Z,18.00
2023-05-21T20:33:32.867Z,17.90
2023-05-21T20:36:01.618Z,17.80
2023-05-21T20:38:32.648Z,17.80
2023-05-21T20:41:03.890Z,17.70
2023-05-21T20:43:32.179Z,17.60
2023-05-21T20:46:00.457Z,17.60
2023-05-21T20:48:30.959Z,17.50
2023-05-21T20:51:02.307Z,17.50
2023-05-21T20:53:31.582Z,17.50
2023-05-21T20:56:01.801Z,17.40
2023-05-21T20:58:30.435Z,17.40
2023-05-21T21:00:58.615Z,17.30
2023-05-21T21:03:30.079Z,17.20
2023-05-21T21:06:01.448Z,17.20
2023-05-21T21:08:29.114Z,17.20
2023-05-21T21:10:57.268Z,17.00
2023-05-21T21:13:24.990Z,17.00
2023-05-21T21:15:53.048Z,16.90
2023-05-21T21:18:20.680Z,16.90
2023-05-21T21:20:49.988Z,16.80
2023-05-21T21:23:18.332Z,16.70
2023-05-21T21:25:47.901Z,16.70
2023-05-21T21:28:16.371Z,16.60
2023-05-21T21:30:45.244Z,16.60
2023-05-21T21:33:14.606Z,16.60
2023-05-21T21:35:42.867Z,16.60
2023-05-21T21:38:10.492Z,16.60
2023-05-21T21:40:38.669Z,16.60
2023-05-21T21:43:06.731Z,16.50
2023-05-21T21:45:34.707Z,16.60
2023-05-21T21:48:02.866Z,16.60
2023-05-21T21:50:30.871Z,16.50
2023-05-21T21:52:58.442Z,16.50
2023-05-21T21:55:26.508Z,16.40
2023-05-21T21:57:54.130Z,16.40
2023-05-21T22:00:26.842Z,16.30
2023-05-21T22:02:54.726Z,16.20
2023-05-21T22:05:22.942Z,16.10
2023-05-21T22:07:51.776Z,16.10
2023-05-21T22:10:19.804Z,16.10
2023-05-21T22:12:47.555Z,16.00
2023-05-21T22:15:28.873Z,16.00
2023-05-21T22:17:56.886Z,16.00
2023-05-21T22:20:29.575Z,16.00
2023-05-21T22:22:58.177Z,15.90
2023-05-21T22:25:26.591Z,15.80
2023-05-21T22:27:54.288Z,15.80
2023-05-21T22:30:22.319Z,15.80
2023-05-21T22:32:49.927Z,15.80
2023-05-21T22:35:19.411Z,15.70
2023-05-21T22:37:47.245Z,15.70
2023-05-21T22:40:15.340Z,15.60
2023-05-21T22:42:45.097Z,15.60
2023-05-21T22:45:13.140Z,15.50
2023-05-21T22:47:41.080Z,15.50
2023-05-21T22:50:10.547Z,15.40
2023-05-21T22:52:38.726Z,15.30
2023-05-21T22:55:06.998Z,15.20
2023-05-21T22:57:34.893Z,15.20
2023-05-21T23:00:02.760Z,15.10
2023-05-21T23:02:30.634Z,15.00
2023-05-21T23:04:58.645Z,15.00
2023-05-21T23:07:26.307Z,15.00
2023-05-21T23:09:54.466Z,14.90
2023-05-21T23:12:22.162Z,14.80
2023-05-21T23:14:50.187Z,14.70
2023-05-21T23:17:36.463Z,14.60
2023-05-21T23:20:05.865Z,14.50
2023-05-21T23:22:33.617Z,14.50
2023-05-21T23:25:01.911Z,14.50
2023-05-21T23:27:29.674Z,14.50
2023-05-21T23:29:57.669Z,14.50
2023-05-21T23:32:25.450Z,14.40
2023-05-21T23:34:53.504Z,14.40
2023-05-21T23:37:21.413Z,14.40
2023-05-21T23:39:49.950Z,14.50
2023-05-21T23:42:19.368Z,14.50
2023-05-21T23:44:47.432Z,14.60
2023-05-21T23:47:15.056Z,14.60
2023-05-21T23:49:42.906Z,14.60
2023-05-21T23:52:13.317Z,14.70
2023-05-21T23:54:41.791Z,14.70
2023-05-21T23:57:09.653Z,14.70
2023-05-21T23:59:37.744Z,14.70
